createdAt,value
2022-11-14T00:01:26.007Z,83.16
2022-11-14T00:03:54.400Z,83.19
2022-11-14T00:06:22.357Z,83.17
2022-11-14T00:08:50.180Z,83.13
2022-11-14T00:11:18.038Z,83.16
2022-11-14T00:13:46.520Z,83.20
2022-11-14T00:16:14.389Z,83.27
2022-11-14T00:18:42.251Z,83.33
2022-11-14T00:21:10.137Z,83.44
2022-11-14T00:23:38.053Z,83.58
2022-11-14T00:26:06.014Z,83.71
2022-11-14T00:28:34.469Z,83.84
2022-11-14T00:31:02.297Z,83.93
2022-11-14T00:33:30.044Z,83.99
2022-11-14T00:35:57.925Z,84.08
2022-11-14T00:38:25.843Z,84.20
2022-11-14T00:40:53.742Z,84.25
2022-11-14T00:43:21.538Z,84.25
2022-11-14T00:45:49.358Z,84.27
2022-11-14T00:48:17.464Z,84.26
2022-11-14T00:50:45.394Z,84.24
2022-11-14T00:53:13.798Z,84.32
2022-11-14T00:55:42.846Z,84.41
2022-11-14T00:58:10.968Z,84.51
2022-11-14T01:00:39.217Z,84.59
2022-11-14T01:03:07.128Z,84.68
2022-11-14T01:05:43.570Z,84.73
2022-11-14T01:08:13.026Z,84.74
2022-11-14T01:10:47.629Z,84.79
2022-11-14T01:13:17.225Z,84.92
2022-11-14T01:15:47.956Z,84.94
2022-11-14T01:18:20.085Z,84.95
2022-11-14T01:20:49.010Z,84.95
2022-11-14T01:23:17.143Z,84.92
2022-11-14T01:25:45.504Z,84.85
2022-11-14T01:28:18.042Z,84.77
2022-11-14T01:30:46.167Z,84.71
2022-11-14T01:33:13.947Z,84.67
2022-11-14T01:35:41.910Z,84.53
2022-11-14T01:38:13.391Z,84.50
2022-11-14T01:40:43.783Z,84.62
2022-11-14T01:43:11.560Z,84.65
2022-11-14T01:45:57.800Z,84.61
2022-11-14T01:48:37.182Z,84.61
2022-11-14T01:51:38.373Z,84.61
2022-11-14T01:54:11.333Z,84.66
2022-11-14T01:56:44.377Z,84.72
2022-11-14T01:59:18.513Z,84.73
2022-11-14T02:01:50.311Z,84.71
2022-11-14T02:04:30.862Z,84.71
2022-11-14T02:07:01.861Z,84.76
2022-11-14T02:09:33.031Z,84.79
2022-11-14T02:12:02.975Z,84.84
2022-11-14T02:14:31.259Z,84.87
2022-11-14T02:17:22.727Z,84.84
2022-11-14T02:20:11.951Z,84.70
2022-11-14T02:22:42.308Z,84.73
2022-11-14T02:25:13.471Z,84.78
2022-11-14T02:27:41.697Z,84.86
2022-11-14T02:30:15.148Z,84.88
2022-11-14T02:33:10.583Z,84.88
2022-11-14T02:35:30.877Z,84.92
2022-11-14T02:37:58.796Z,84.93
2022-11-14T02:40:26.597Z,84.99
2022-11-14T02:42:54.635Z,85.01
2022-11-14T02:45:22.458Z,85.00
2022-11-14T02:47:50.294Z,85.08
2022-11-14T02:50:18.453Z,85.14
2022-11-14T02:52:46.366Z,85.16
2022-11-14T02:55:14.187Z,85.13
2022-11-14T02:57:41.960Z,85.12
2022-11-14T03:00:14.835Z,85.09
2022-11-14T03:02:43.199Z,85.01
2022-11-14T03:05:11.088Z,84.93
2022-11-14T03:07:38.972Z,84.85
2022-11-14T03:10:08.092Z,84.77
2022-11-14T03:12:35.848Z,84.64
2022-11-14T03:15:07.715Z,84.71
2022-11-14T03:17:35.637Z,84.83
2022-11-14T03:20:04.121Z,84.93
2022-11-14T03:22:31.902Z,84.99
2022-11-14T03:24:59.666Z,84.95
2022-11-14T03:27:27.507Z,84.94
2022-11-14T03:29:55.370Z,84.92
2022-11-14T03:32:23.303Z,84.87
2022-11-14T03:34:51.165Z,84.88
2022-11-14T03:37:19.063Z,84.73
2022-11-14T03:39:46.884Z,84.70
2022-11-14T03:42:14.816Z,84.75
2022-11-14T03:44:42.577Z,84.74
2022-11-14T03:47:10.560Z,84.77
2022-11-14T03:49:38.362Z,84.82
2022-11-14T03:52:06.221Z,84.82
2022-11-14T03:54:34.040Z,84.84
2022-11-14T03:57:01.835Z,84.88
2022-11-14T03:59:29.786Z,84.89
2022-11-14T04:01:57.624Z,84.81
2022-11-14T04:04:25.643Z,84.85
2022-11-14T04:06:53.511Z,84.97
2022-11-14T04:09:21.411Z,85.09
2022-11-14T04:11:49.191Z,85.17
2022-11-14T04:14:16.995Z,85.29
2022-11-14T04:16:44.749Z,85.40
2022-11-14T04:19:12.547Z,85.50
2022-11-14T04:21:40.405Z,85.61
2022-11-14T04:24:11.020Z,85.69
2022-11-14T04:26:39.219Z,85.73
2022-11-14T04:29:07.089Z,85.75
2022-11-14T04:31:34.901Z,85.77
2022-11-14T04:34:02.737Z,85.78
2022-11-14T04:36:30.558Z,85.79
2022-11-14T04:38:58.343Z,85.78
2022-11-14T04:41:26.218Z,85.75
2022-11-14T04:43:54.019Z,85.68
2022-11-14T04:46:22.322Z,85.67
2022-11-14T04:48:50.104Z,85.69
2022-11-14T04:51:18.059Z,85.64
2022-11-14T04:53:45.892Z,85.62
2022-11-14T04:56:13.714Z,85.59
2022-11-14T04:58:41.500Z,85.53
2022-11-14T05:01:11.038Z,85.61
2022-11-14T05:03:38.930Z,85.65
2022-11-14T05:06:07.378Z,85.63
2022-11-14T05:08:35.409Z,85.54
2022-11-14T05:11:03.200Z,85.42
2022-11-14T05:13:31.163Z,85.30
2022-11-14T05:16:00.370Z,85.31
2022-11-14T05:18:28.683Z,85.24
2022-11-14T05:20:59.915Z,85.22
2022-11-14T05:23:28.338Z,85.20
2022-11-14T05:26:06.053Z,85.23
2022-11-14T05:28:34.510Z,85.27
2022-11-14T05:31:09.378Z,85.29
2022-11-14T05:33:37.331Z,85.36
2022-11-14T05:36:08.537Z,85.34
2022-11-14T05:38:37.149Z,85.35
2022-11-14T05:41:14.548Z,85.39
2022-11-14T05:43:43.229Z,85.41
2022-11-14T05:46:13.971Z,85.43
2022-11-14T05:48:42.178Z,85.46
2022-11-14T05:51:12.597Z,85.42
2022-11-14T05:53:41.602Z,85.23
2022-11-14T05:56:13.405Z,85.25
2022-11-14T05:58:41.502Z,85.36
2022-11-14T06:01:13.124Z,85.39
2022-11-14T06:03:44.311Z,85.42
2022-11-14T06:06:20.131Z,85.46
2022-11-14T06:08:48.751Z,85.47
2022-11-14T06:11:20.047Z,85.47
2022-11-14T06:13:48.619Z,85.45
2022-11-14T06:16:19.019Z,85.44
2022-11-14T06:18:47.723Z,85.44
2022-11-14T06:21:22.074Z,85.46
2022-11-14T06:23:50.123Z,85.47
2022-11-14T06:26:31.683Z,85.47
2022-11-14T06:29:00.678Z,85.49
2022-11-14T06:31:28.747Z,85.51
2022-11-14T06:33:57.061Z,85.42
2022-11-14T06:36:25.080Z,85.32
2022-11-14T06:38:53.000Z,85.15
2022-11-14T06:41:22.115Z,85.00
2022-11-14T06:43:53.004Z,85.09
2022-11-14T06:46:22.667Z,85.21
2022-11-14T06:48:52.509Z,85.33
2022-11-14T06:51:20.354Z,85.44
2022-11-14T06:53:48.271Z,85.57
2022-11-14T06:56:18.161Z,85.63
2022-11-14T06:58:48.628Z,85.63
2022-11-14T07:01:19.416Z,85.56
2022-11-14T07:03:47.892Z,85.54
2022-11-14T07:06:19.276Z,85.57
2022-11-14T07:08:47.331Z,85.57
2022-11-14T07:11:25.881Z,85.49
2022-11-14T07:14:01.976Z,85.41
2022-11-14T07:16:35.613Z,85.39
2022-11-14T07:19:06.222Z,85.32
2022-11-14T07:21:35.126Z,85.11
2022-11-14T07:24:03.289Z,85.11
2022-11-14T07:26:32.091Z,85.13
2022-11-14T07:29:02.448Z,85.14
2022-11-14T07:31:30.946Z,85.13
2022-11-14T07:33:58.855Z,85.08
2022-11-14T07:36:26.623Z,85.06
2022-11-14T07:38:54.656Z,85.07
2022-11-14T07:41:22.448Z,85.07
2022-11-14T07:43:50.223Z,85.06
2022-11-14T07:46:18.649Z,84.96
2022-11-14T07:48:46.471Z,84.68
2022-11-14T07:51:19.796Z,84.17
2022-11-14T07:53:48.256Z,83.81
2022-11-14T07:56:17.345Z,83.68
2022-11-14T07:58:45.947Z,83.71
2022-11-14T08:01:14.833Z,83.33
2022-11-14T08:03:45.971Z,83.34
2022-11-14T08:06:16.047Z,83.23
2022-11-14T08:08:43.959Z,83.28
2022-11-14T08:11:12.309Z,83.32
2022-11-14T08:13:40.273Z,83.27
2022-11-14T08:16:13.526Z,83.18
2022-11-14T08:18:42.067Z,83.30
2022-11-14T08:21:09.918Z,83.45
2022-11-14T08:23:38.823Z,83.50
2022-11-14T08:26:06.831Z,83.35
2022-11-14T08:28:34.857Z,83.43
2022-11-14T08:31:04.551Z,83.52
2022-11-14T08:33:32.516Z,83.55
2022-11-14T08:36:05.625Z,83.62
2022-11-14T08:38:34.796Z,83.58
2022-11-14T08:41:03.744Z,83.53
2022-11-14T08:43:32.207Z,83.50
2022-11-14T08:46:02.742Z,83.31
2022-11-14T08:48:31.796Z,83.30
2022-11-14T08:51:07.382Z,83.19
2022-11-14T08:53:35.426Z,82.98
2022-11-14T08:56:03.687Z,82.83
2022-11-14T08:58:33.012Z,82.88
2022-11-14T09:01:07.107Z,82.83
2022-11-14T09:03:35.087Z,82.93
2022-11-14T09:06:03.503Z,82.76
2022-11-14T09:08:32.062Z,82.73
2022-11-14T09:11:05.226Z,82.27
2022-11-14T09:13:34.850Z,82.02
2022-11-14T09:16:03.010Z,81.93
2022-11-14T09:18:31.720Z,81.84
2022-11-14T09:21:06.641Z,81.83
2022-11-14T09:23:35.821Z,81.58
2022-11-14T09:26:08.669Z,81.60
2022-11-14T09:28:37.569Z,81.71
2022-11-14T09:31:09.001Z,81.64
2022-11-14T09:33:36.935Z,81.41
2022-11-14T09:36:08.293Z,81.44
2022-11-14T09:38:38.751Z,81.61
2022-11-14T09:42:16.941Z,81.77
2022-11-14T09:45:02.316Z,81.54
2022-11-14T09:47:59.928Z,81.48
2022-11-14T09:50:33.513Z,81.26
2022-11-14T09:53:33.960Z,80.92
2022-11-14T09:56:01.905Z,80.61
2022-11-14T09:58:29.928Z,80.27
2022-11-14T10:01:09.638Z,80.15
2022-11-14T10:03:58.644Z,79.80
2022-11-14T10:06:33.716Z,79.70
2022-11-14T10:09:19.874Z,79.55
2022-11-14T10:11:55.617Z,79.67
2022-11-14T10:14:53.657Z,79.10
2022-11-14T10:17:51.910Z,78.96
2022-11-14T10:20:54.676Z,79.07
2022-11-14T10:23:37.272Z,79.02
2022-11-14T10:26:30.272Z,79.23
2022-11-14T10:29:04.182Z,78.58
2022-11-14T10:31:54.275Z,78.31
2022-11-14T10:34:42.873Z,78.16
2022-11-14T10:37:28.965Z,77.85
2022-11-14T10:40:14.397Z,77.93
2022-11-14T10:42:47.414Z,78.02
2022-11-14T10:45:25.312Z,77.39
2022-11-14T10:48:01.546Z,76.80
2022-11-14T10:50:59.720Z,76.57
2022-11-14T10:53:53.723Z,76.59
2022-11-14T10:56:22.115Z,76.31
2022-11-14T10:58:50.442Z,75.90
2022-11-14T11:01:35.967Z,76.18
2022-11-14T11:04:30.871Z,75.96
2022-11-14T11:07:42.744Z,75.74
2022-11-14T11:10:41.954Z,75.78
2022-11-14T11:13:15.731Z,75.29
2022-11-14T11:15:58.459Z,74.80
2022-11-14T11:18:35.685Z,74.28
2022-11-14T11:21:15.293Z,74.29
2022-11-14T11:23:53.364Z,73.51
2022-11-14T11:26:28.722Z,73.21
2022-11-14T11:29:06.537Z,73.07
2022-11-14T11:31:56.025Z,72.67
2022-11-14T11:34:34.122Z,71.41
2022-11-14T11:37:16.229Z,70.85
2022-11-14T11:39:57.716Z,70.17
2022-11-14T11:42:58.793Z,69.77
2022-11-14T11:45:19.819Z,69.95
2022-11-14T11:47:58.147Z,69.09
2022-11-14T11:50:26.171Z,68.57
2022-11-14T11:53:08.214Z,68.35
2022-11-14T11:55:44.320Z,68.39
2022-11-14T11:58:46.164Z,67.61
2022-11-14T12:01:18.124Z,67.60
2022-11-14T12:03:51.908Z,66.65
2022-11-14T12:06:29.882Z,66.07
2022-11-14T12:09:42.536Z,66.18
2022-11-14T12:12:26.026Z,66.41
2022-11-14T12:15:39.193Z,65.93
2022-11-14T12:18:39.177Z,65.04
2022-11-14T12:21:25.620Z,64.74
2022-11-14T12:24:34.767Z,64.61
2022-11-14T12:27:24.695Z,63.87
2022-11-14T12:29:55.366Z,64.80
2022-11-14T12:32:53.260Z,64.57
2022-11-14T12:35:25.818Z,64.37
2022-11-14T12:37:56.022Z,64.06
2022-11-14T12:40:29.797Z,64.23
2022-11-14T12:42:59.110Z,63.07
2022-11-14T12:45:42.328Z,61.61
2022-11-14T12:48:22.970Z,61.67
2022-11-14T12:50:51.296Z,61.63
2022-11-14T12:53:37.205Z,60.95
2022-11-14T12:56:15.126Z,61.21
2022-11-14T12:59:05.417Z,60.82
2022-11-14T13:01:36.093Z,60.56
2022-11-14T13:04:26.175Z,60.59
2022-11-14T13:07:34.293Z,60.67
2022-11-14T13:10:16.708Z,60.54
2022-11-14T13:13:36.009Z,60.81
2022-11-14T13:16:23.305Z,61.24
2022-11-14T13:19:30.570Z,61.53
2022-11-14T13:22:14.646Z,61.86
2022-11-14T13:25:05.473Z,62.20
2022-11-14T13:28:05.283Z,62.55
2022-11-14T13:31:07.711Z,63.00
2022-11-14T13:33:45.481Z,63.46
2022-11-14T13:36:35.089Z,63.75
2022-11-14T13:39:15.289Z,64.05
2022-11-14T13:42:32.320Z,64.39
2022-11-14T13:45:25.927Z,64.91
2022-11-14T13:48:11.130Z,65.26
2022-11-14T13:50:40.681Z,65.71
2022-11-14T13:53:16.029Z,66.21
2022-11-14T13:56:04.530Z,66.46
2022-11-14T13:59:03.380Z,66.82
2022-11-14T14:01:59.573Z,67.06
2022-11-14T14:04:45.158Z,67.34
2022-11-14T14:07:51.102Z,67.78
2022-11-14T14:11:00.917Z,68.04
2022-11-14T14:13:55.724Z,68.44
2022-11-14T14:16:52.395Z,68.75
2022-11-14T14:19:43.291Z,69.06
2022-11-14T14:22:27.541Z,69.27
2022-11-14T14:25:07.369Z,69.42
2022-11-14T14:27:56.223Z,69.59
2022-11-14T14:30:24.571Z,69.69
2022-11-14T14:33:07.944Z,69.78
2022-11-14T14:35:40.923Z,70.02
2022-11-14T14:38:21.938Z,70.28
2022-11-14T14:40:50.050Z,70.44
2022-11-14T14:43:35.421Z,70.57
2022-11-14T14:46:06.289Z,70.84
2022-11-14T14:48:36.870Z,70.94
2022-11-14T14:51:07.656Z,71.10
2022-11-14T14:53:36.950Z,71.36
2022-11-14T14:56:25.027Z,71.49
2022-11-14T14:58:53.121Z,71.55
2022-11-14T15:01:39.640Z,71.82
2022-11-14T15:04:14.143Z,72.02
2022-11-14T15:06:46.625Z,72.26
2022-11-14T15:09:29.897Z,72.44
2022-11-14T15:12:00.542Z,72.51
2022-11-14T15:14:35.963Z,72.51
2022-11-14T15:17:04.446Z,72.55
2022-11-14T15:19:45.420Z,72.67
2022-11-14T15:22:28.099Z,72.81
2022-11-14T15:25:14.842Z,72.88
2022-11-14T15:27:52.257Z,73.04
2022-11-14T15:30:31.453Z,73.26
2022-11-14T15:33:05.706Z,73.49
2022-11-14T15:35:38.238Z,73.66
2022-11-14T15:38:37.080Z,73.83
2022-11-14T15:41:24.454Z,74.01
2022-11-14T15:43:55.424Z,74.16
2022-11-14T15:46:38.012Z,74.31
2022-11-14T15:49:14.691Z,74.48
2022-11-14T15:52:03.880Z,74.59
2022-11-14T15:54:40.410Z,74.74
2022-11-14T15:57:17.417Z,75.06
2022-11-14T15:59:45.592Z,75.33
2022-11-14T16:02:45.971Z,75.58
2022-11-14T16:05:17.663Z,75.76
2022-11-14T16:07:51.167Z,76.04
2022-11-14T16:10:27.750Z,76.18
2022-11-14T16:12:56.154Z,76.43
2022-11-14T16:15:24.502Z,76.74
2022-11-14T16:17:52.374Z,76.85
2022-11-14T16:20:27.403Z,77.00
2022-11-14T16:22:56.704Z,77.24
2022-11-14T16:25:27.763Z,77.49
2022-11-14T16:27:55.859Z,77.61
2022-11-14T16:30:29.084Z,77.76
2022-11-14T16:32:57.161Z,77.81
2022-11-14T16:35:27.093Z,78.09
2022-11-14T16:37:59.493Z,78.44
2022-11-14T16:40:28.901Z,78.73
2022-11-14T16:42:59.615Z,78.84
2022-11-14T16:45:28.408Z,79.22
2022-11-14T16:47:56.467Z,79.48
2022-11-14T16:50:24.567Z,79.71
2022-11-14T16:52:59.410Z,79.81
2022-11-14T16:55:27.595Z,79.81
2022-11-14T16:57:57.448Z,79.86
2022-11-14T17:00:25.606Z,79.99
2022-11-14T17:03:00.004Z,80.07
2022-11-14T17:05:31.422Z,80.27
2022-11-14T17:07:59.608Z,80.36
2022-11-14T17:10:27.649Z,80.40
2022-11-14T17:12:55.666Z,80.50
2022-11-14T17:15:23.572Z,80.63
2022-11-14T17:17:51.674Z,80.68
2022-11-14T17:20:19.699Z,80.77
2022-11-14T17:22:47.630Z,80.81
2022-11-14T17:25:15.534Z,80.84
2022-11-14T17:27:43.327Z,80.86
2022-11-14T17:30:15.062Z,80.92
2022-11-14T17:32:42.962Z,81.03
2022-11-14T17:35:11.055Z,81.14
2022-11-14T17:37:39.379Z,81.23
2022-11-14T17:40:14.217Z,81.18
2022-11-14T17:42:43.338Z,81.25
2022-11-14T17:45:14.101Z,81.25
2022-11-14T17:47:42.286Z,81.26
2022-11-14T17:50:12.987Z,81.26
2022-11-14T17:52:43.198Z,81.28
2022-11-14T17:55:14.284Z,81.37
2022-11-14T17:57:42.333Z,81.44
2022-11-14T18:00:10.944Z,81.55
2022-11-14T18:02:38.935Z,81.60
2022-11-14T18:05:07.543Z,81.66
2022-11-14T18:07:35.595Z,81.71
2022-11-14T18:10:03.923Z,81.75
2022-11-14T18:12:34.063Z,81.79
2022-11-14T18:15:02.246Z,81.87
2022-11-14T18:17:34.360Z,81.89
2022-11-14T18:20:04.587Z,81.93
2022-11-14T18:22:32.423Z,81.93
2022-11-14T18:25:07.510Z,82.00
2022-11-14T18:27:36.582Z,82.07
2022-11-14T18:30:20.150Z,82.15
2022-11-14T18:32:56.376Z,82.26
2022-11-14T18:35:25.984Z,82.27
2022-11-14T18:37:54.200Z,82.30
2022-11-14T18:40:22.425Z,82.31
2022-11-14T18:42:50.508Z,82.40
2022-11-14T18:45:18.678Z,82.36
2022-11-14T18:47:46.775Z,82.37
2022-11-14T18:50:15.030Z,82.31
2022-11-14T18:52:43.063Z,82.23
2022-11-14T18:55:11.229Z,82.17
2022-11-14T18:57:40.940Z,82.18
2022-11-14T19:00:09.960Z,82.18
2022-11-14T19:02:40.412Z,82.14
2022-11-14T19:05:08.809Z,82.11
2022-11-14T19:07:38.787Z,82.11
2022-11-14T19:10:07.680Z,82.13
2022-11-14T19:12:35.785Z,82.19
2022-11-14T19:15:05.628Z,82.21
2022-11-14T19:17:33.880Z,82.22
2022-11-14T19:20:01.913Z,82.25
2022-11-14T19:22:30.001Z,82.25
2022-11-14T19:24:59.173Z,82.29
2022-11-14T19:27:27.641Z,82.38
2022-11-14T19:29:55.965Z,82.42
2022-11-14T19:32:26.883Z,82.42
2022-11-14T19:34:55.061Z,82.45
2022-11-14T19:37:23.193Z,82.45
2022-11-14T19:39:55.479Z,82.50
2022-11-14T19:42:23.643Z,82.50
2022-11-14T19:44:52.677Z,82.57
2022-11-14T19:47:20.932Z,82.64
2022-11-14T19:49:49.756Z,82.68
2022-11-14T19:52:18.147Z,82.77
2022-11-14T19:54:49.265Z,82.77
2022-11-14T19:57:17.195Z,82.94
2022-11-14T19:59:45.027Z,83.04
2022-11-14T20:02:14.086Z,83.07
2022-11-14T20:04:43.655Z,83.14
2022-11-14T20:07:11.632Z,83.16
2022-11-14T20:09:42.181Z,83.12
2022-11-14T20:12:10.075Z,83.14
2022-11-14T20:14:41.318Z,83.12
2022-11-14T20:17:09.438Z,83.07
2022-11-14T20:19:41.826Z,83.01
2022-11-14T20:22:12.599Z,82.96
2022-11-14T20:24:40.687Z,82.91
2022-11-14T20:27:13.943Z,82.93
2022-11-14T20:29:41.985Z,82.87
2022-11-14T20:32:15.731Z,82.85
2022-11-14T20:34:44.071Z,82.86
2022-11-14T20:37:12.245Z,82.85
2022-11-14T20:39:40.861Z,82.85
2022-11-14T20:42:08.851Z,82.87
2022-11-14T20:44:36.710Z,82.89
2022-11-14T20:47:09.740Z,82.90
2022-11-14T20:49:38.913Z,82.92
2022-11-14T20:52:07.000Z,82.95
2022-11-14T20:54:34.846Z,82.93
2022-11-14T20:57:02.835Z,82.91
2022-11-14T20:59:30.694Z,82.90
2022-11-14T21:01:58.705Z,82.89
2022-11-14T21:04:26.537Z,82.93
2022-11-14T21:06:54.380Z,82.94
2022-11-14T21:09:22.191Z,82.95
2022-11-14T21:11:49.967Z,82.98
2022-11-14T21:14:17.855Z,82.99
2022-11-14T21:16:45.768Z,83.02
2022-11-14T21:19:13.787Z,83.05
2022-11-14T21:21:41.571Z,83.02
2022-11-14T21:24:09.533Z,83.03
2022-11-14T21:26:39.813Z,83.02
2022-11-14T21:29:14.504Z,83.01
2022-11-14T21:31:45.738Z,83.00
2022-11-14T21:34:18.147Z,82.96
2022-11-14T21:36:48.453Z,82.92
2022-11-14T21:39:19.864Z,82.91
2022-11-14T21:41:53.690Z,82.91
2022-11-14T21:44:22.318Z,82.90
2022-11-14T21:46:53.227Z,82.84
2022-11-14T21:49:21.752Z,82.80
2022-11-14T21:51:49.911Z,82.75
2022-11-14T21:54:17.899Z,82.70
2022-11-14T21:56:49.092Z,82.67
2022-11-14T21:59:18.963Z,82.63
2022-11-14T22:02:12.635Z,82.65
2022-11-14T22:04:43.275Z,82.68
2022-11-14T22:07:13.647Z,82.68
2022-11-14T22:09:45.367Z,82.67
2022-11-14T22:12:13.715Z,82.60
2022-11-14T22:14:44.094Z,82.58
2022-11-14T22:17:11.944Z,82.60
2022-11-14T22:19:39.789Z,82.58
2022-11-14T22:22:07.915Z,82.61
2022-11-14T22:24:35.790Z,82.64
2022-11-14T22:27:03.851Z,82.66
2022-11-14T22:29:31.637Z,82.70
2022-11-14T22:31:59.456Z,82.77
2022-11-14T22:34:27.463Z,82.82
2022-11-14T22:36:55.231Z,82.80
2022-11-14T22:39:23.025Z,82.84
2022-11-14T22:41:50.842Z,82.89
2022-11-14T22:44:18.734Z,82.92
2022-11-14T22:46:46.961Z,82.99
2022-11-14T22:49:19.737Z,83.02
2022-11-14T22:51:48.732Z,83.08
2022-11-14T22:54:16.669Z,83.12
2022-11-14T22:56:44.518Z,83.16
2022-11-14T22:59:12.487Z,83.23
2022-11-14T23:01:40.306Z,83.27
2022-11-14T23:04:09.281Z,83.31
2022-11-14T23:06:37.132Z,83.31
2022-11-14T23:09:05.223Z,83.33
2022-11-14T23:11:33.657Z,83.39
2022-11-14T23:14:01.542Z,83.40
2022-11-14T23:16:32.315Z,83.46
2022-11-14T23:19:02.736Z,83.47
2022-11-14T23:21:35.435Z,83.50
2022-11-14T23:24:08.687Z,83.54
2022-11-14T23:26:36.517Z,83.57
2022-11-14T23:29:04.308Z,83.56
2022-11-14T23:31:32.136Z,83.52
2022-11-14T23:33:59.989Z,83.51
2022-11-14T23:36:27.932Z,83.47
2022-11-14T23:38:56.005Z,83.55
2022-11-14T23:41:27.564Z,83.63
2022-11-14T23:43:55.312Z,83.59
2022-11-14T23:46:23.111Z,83.58
2022-11-14T23:48:53.319Z,83.57
2022-11-14T23:51:21.226Z,83.55
2022-11-14T23:53:49.147Z,83.57
2022-11-14T23:56:17.106Z,83.53
2022-11-14T23:58:45.086Z,83.47
